sensor_id;sensor_type;location;lat;lon;timestamp;pressure;altitude;pressure_sealevel;temperature;humidity
67015;BME280;1033;52.560;13.374;2023-04-25T00:01:17;100010.53;;;9.55;76.69
67015;BME280;1033;52.560;13.374;2023-04-25T00:03:47;100009.91;;;9.91;80.42
67015;BME280;1033;52.560;13.374;2023-04-25T00:06:26;100010.13;;;10.14;76.20
67015;BME280;1033;52.560;13.374;2023-04-25T00:08:57;100018.44;;;10.13;73.59
67015;BME280;1033;52.560;13.374;2023-04-25T00:11:27;100010.44;;;10.31;76.21
67015;BME280;1033;52.560;13.374;2023-04-25T00:13:58;100003.63;;;10.22;74.97
67015;BME280;1033;52.560;13.374;2023-04-25T00:16:30;100011.25;;;10.07;74.55
67015;BME280;1033;52.560;13.374;2023-04-25T00:19:02;100008.28;;;9.83;75.04
67015;BME280;1033;52.560;13.374;2023-04-25T00:21:33;100012.13;;;9.69;74.59
67015;BME280;1033;52.560;13.374;2023-04-25T00:24:03;100007.94;;;9.73;73.86
67015;BME280;1033;52.560;13.374;2023-04-25T00:26:34;100008.03;;;9.91;75.94
67015;BME280;1033;52.560;13.374;2023-04-25T00:29:04;100005.50;;;9.65;73.93
67015;BME280;1033;52.560;13.374;2023-04-25T00:31:33;100004.97;;;9.50;74.78
67015;BME280;1033;52.560;13.374;2023-04-25T00:34:03;100003.38;;;9.36;74.13
67015;BME280;1033;52.560;13.374;2023-04-25T00:36:34;100004.34;;;10.11;78.64
67015;BME280;1033;52.560;13.374;2023-04-25T00:39:04;100007.63;;;10.19;73.06
67015;BME280;1033;52.560;13.374;2023-04-25T00:41:34;99998.78;;;9.74;74.76
67015;BME280;1033;52.560;13.374;2023-04-25T00:44:04;99998.59;;;9.69;74.29
67015;BME280;1033;52.560;13.374;2023-04-25T00:46:35;99997.59;;;9.64;72.72
67015;BME280;1033;52.560;13.374;2023-04-25T00:49:05;99994.72;;;9.58;73.14
67015;BME280;1033;52.560;13.374;2023-04-25T00:51:36;99995.34;;;9.60;72.07
67015;BME280;1033;52.560;13.374;2023-04-25T00:54:06;100002.25;;;9.50;73.18
67015;BME280;1033;52.560;13.374;2023-04-25T00:56:35;99990.25;;;9.46;73.80
67015;BME280;1033;52.560;13.374;2023-04-25T00:59:05;100004.72;;;9.58;73.83
67015;BME280;1033;52.560;13.374;2023-04-25T01:01:36;99996.31;;;9.73;76.18
67015;BME280;1033;52.560;13.374;2023-04-25T01:04:05;100000.59;;;10.12;75.73
67015;BME280;1033;52.560;13.374;2023-04-25T01:06:37;99990.81;;;10.11;72.93
67015;BME280;1033;52.560;13.374;2023-04-25T01:09:07;99993.38;;;10.06;74.94
67015;BME280;1033;52.560;13.374;2023-04-25T01:11:37;99983.03;;;9.71;76.20
67015;BME280;1033;52.560;13.374;2023-04-25T01:14:08;99982.09;;;9.84;75.61
67015;BME280;1033;52.560;13.374;2023-04-25T01:16:37;99983.81;;;9.47;72.77
67015;BME280;1033;52.560;13.374;2023-04-25T01:19:10;99978.31;;;9.29;74.40
67015;BME280;1033;52.560;13.374;2023-04-25T01:21:41;99979.31;;;9.66;73.19
67015;BME280;1033;52.560;13.374;2023-04-25T01:24:11;99977.72;;;9.58;74.00
67015;BME280;1033;52.560;13.374;2023-04-25T01:26:42;99975.69;;;9.47;74.34
67015;BME280;1033;52.560;13.374;2023-04-25T01:29:23;99980.28;;;9.78;74.65
67015;BME280;1033;52.560;13.374;2023-04-25T01:31:53;99979.25;;;9.41;73.44
67015;BME280;1033;52.560;13.374;2023-04-25T01:34:24;99977.84;;;9.32;72.84
67015;BME280;1033;52.560;13.374;2023-04-25T01:36:55;99981.19;;;9.34;74.22
67015;BME280;1033;52.560;13.374;2023-04-25T01:39:26;99979.91;;;9.36;72.92
67015;BME280;1033;52.560;13.374;2023-04-25T01:41:55;99977.75;;;9.13;73.81
67015;BME280;1033;52.560;13.374;2023-04-25T01:44:26;99972.72;;;9.24;72.90
67015;BME280;1033;52.560;13.374;2023-04-25T01:46:55;99975.38;;;9.30;74.64
67015;BME280;1033;52.560;13.374;2023-04-25T01:49:26;99973.75;;;9.29;73.35
67015;BME280;1033;52.560;13.374;2023-04-25T01:51:57;99970.91;;;9.80;74.80
67015;BME280;1033;52.560;13.374;2023-04-25T01:54:26;99978.38;;;9.78;76.13
67015;BME280;1033;52.560;13.374;2023-04-25T01:56:57;99978.88;;;10.25;74.42
67015;BME280;1033;52.560;13.374;2023-04-25T01:59:27;99980.34;;;9.96;73.20
67015;BME280;1033;52.560;13.374;2023-04-25T02:02:05;99985.69;;;10.02;73.03
67015;BME280;1033;52.560;13.374;2023-04-25T02:04:36;99992.50;;;9.80;72.32
67015;BME280;1033;52.560;13.374;2023-04-25T02:07:08;99983.63;;;9.98;73.66
67015;BME280;1033;52.560;13.374;2023-04-25T02:09:49;99984.47;;;9.98;73.25
67015;BME280;1033;52.560;13.374;2023-04-25T02:12:23;99976.00;;;9.64;75.05
67015;BME280;1033;52.560;13.374;2023-04-25T02:15:12;99985.06;;;9.76;73.92
67015;BME280;1033;52.560;13.374;2023-04-25T02:17:49;99981.47;;;9.50;75.79
67015;BME280;1033;52.560;13.374;2023-04-25T02:20:21;99979.22;;;9.79;73.71
67015;BME280;1033;52.560;13.374;2023-04-25T02:22:53;99981.22;;;9.58;73.00
67015;BME280;1033;52.560;13.374;2023-04-25T02:25:23;99989.19;;;9.78;75.58
67015;BME280;1033;52.560;13.374;2023-04-25T02:27:53;99983.75;;;9.85;74.28
67015;BME280;1033;52.560;13.374;2023-04-25T02:30:23;99986.84;;;10.13;76.15
67015;BME280;1033;52.560;13.374;2023-04-25T02:32:52;99978.41;;;10.28;72.56
67015;BME280;1033;52.560;13.374;2023-04-25T02:35:22;99983.28;;;9.88;72.25
67015;BME280;1033;52.560;13.374;2023-04-25T02:37:55;99982.75;;;9.79;74.73
67015;BME280;1033;52.560;13.374;2023-04-25T02:40:25;99980.53;;;10.26;73.13
67015;BME280;1033;52.560;13.374;2023-04-25T02:42:55;99975.19;;;10.19;72.52
67015;BME280;1033;52.560;13.374;2023-04-25T02:45:26;99974.34;;;10.19;74.18
67015;BME280;1033;52.560;13.374;2023-04-25T02:47:56;99981.44;;;9.88;71.58
67015;BME280;1033;52.560;13.374;2023-04-25T02:50:26;99980.41;;;9.58;72.81
67015;BME280;1033;52.560;13.374;2023-04-25T02:52:56;99976.91;;;9.51;74.57
67015;BME280;1033;52.560;13.374;2023-04-25T02:55:31;99981.63;;;9.62;74.30
67015;BME280;1033;52.560;13.374;2023-04-25T02:58:02;99980.09;;;10.29;74.53
67015;BME280;1033;52.560;13.374;2023-04-25T03:00:47;99981.53;;;9.44;73.40
67015;BME280;1033;52.560;13.374;2023-04-25T03:03:17;99987.56;;;9.77;76.44
67015;BME280;1033;52.560;13.374;2023-04-25T03:05:52;99983.44;;;9.99;74.40
67015;BME280;1033;52.560;13.374;2023-04-25T03:08:27;99975.63;;;9.85;72.79
67015;BME280;1033;52.560;13.374;2023-04-25T03:11:01;99981.44;;;10.13;74.02
67015;BME280;1033;52.560;13.374;2023-04-25T03:13:30;99986.59;;;10.64;72.45
67015;BME280;1033;52.560;13.374;2023-04-25T03:15:59;99980.88;;;10.04;73.82
67015;BME280;1033;52.560;13.374;2023-04-25T03:18:30;99982.31;;;10.07;72.85
67015;BME280;1033;52.560;13.374;2023-04-25T03:21:00;99975.28;;;10.06;73.24
67015;BME280;1033;52.560;13.374;2023-04-25T03:23:32;99983.53;;;9.86;74.33
67015;BME280;1033;52.560;13.374;2023-04-25T03:26:02;99980.91;;;9.73;72.67
67015;BME280;1033;52.560;13.374;2023-04-25T03:28:31;99983.91;;;9.58;75.19
67015;BME280;1033;52.560;13.374;2023-04-25T03:31:01;99982.31;;;9.51;73.76
67015;BME280;1033;52.560;13.374;2023-04-25T03:33:30;99988.84;;;9.99;75.21
67015;BME280;1033;52.560;13.374;2023-04-25T03:35:59;99982.91;;;9.84;72.39
67015;BME280;1033;52.560;13.374;2023-04-25T03:38:29;99977.97;;;9.81;74.89
67015;BME280;1033;52.560;13.374;2023-04-25T03:41:00;99983.56;;;10.11;71.95
67015;BME280;1033;52.560;13.374;2023-04-25T03:43:53;99984.81;;;9.52;72.62
67015;BME280;1033;52.560;13.374;2023-04-25T03:46:22;99987.06;;;9.24;74.44
67015;BME280;1033;52.560;13.374;2023-04-25T03:48:52;99990.50;;;9.69;76.04
67015;BME280;1033;52.560;13.374;2023-04-25T03:51:26;99985.91;;;9.76;75.17
67015;BME280;1033;52.560;13.374;2023-04-25T03:53:55;99995.28;;;9.98;74.62
67015;BME280;1033;52.560;13.374;2023-04-25T03:56:32;99987.69;;;9.57;74.92
67015;BME280;1033;52.560;13.374;2023-04-25T03:59:10;99992.03;;;9.90;75.73
67015;BME280;1033;52.560;13.374;2023-04-25T04:01:40;99991.09;;;9.78;73.63
67015;BME280;1033;52.560;13.374;2023-04-25T04:04:09;99996.06;;;9.74;74.32
67015;BME280;1033;52.560;13.374;2023-04-25T04:06:39;99995.72;;;9.33;73.96
67015;BME280;1033;52.560;13.374;2023-04-25T04:09:13;99993.31;;;9.49;73.84
67015;BME280;1033;52.560;13.374;2023-04-25T04:11:46;100001.41;;;9.56;76.52
67015;BME280;1033;52.560;13.374;2023-04-25T04:14:15;100006.94;;;9.68;75.48
67015;BME280;1033;52.560;13.374;2023-04-25T04:16:46;100003.06;;;9.57;74.04
67015;BME280;1033;52.560;13.374;2023-04-25T04:19:16;100009.94;;;9.53;72.99
67015;BME280;1033;52.560;13.374;2023-04-25T04:21:52;100015.81;;;9.75;76.28
67015;BME280;1033;52.560;13.374;2023-04-25T04:24:21;100026.34;;;9.58;73.54
67015;BME280;1033;52.560;13.374;2023-04-25T04:26:58;100018.09;;;9.40;76.01
67015;BME280;1033;52.560;13.374;2023-04-25T04:29:47;100017.28;;;9.77;72.65
67015;BME280;1033;52.560;13.374;2023-04-25T04:32:31;100029.81;;;9.96;73.75
67015;BME280;1033;52.560;13.374;2023-04-25T04:35:04;100016.94;;;9.23;73.66
67015;BME280;1033;52.560;13.374;2023-04-25T04:37:34;100023.91;;;9.81;78.78
67015;BME280;1033;52.560;13.374;2023-04-25T04:40:06;100031.78;;;10.39;74.15
67015;BME280;1033;52.560;13.374;2023-04-25T04:42:50;100025.09;;;9.85;73.79
67015;BME280;1033;52.560;13.374;2023-04-25T04:45:39;100023.63;;;10.21;71.60
67015;BME280;1033;52.560;13.374;2023-04-25T04:48:19;100033.66;;;9.82;72.47
67015;BME280;1033;52.560;13.374;2023-04-25T04:51:24;100040.97;;;9.44;74.65
67015;BME280;1033;52.560;13.374;2023-04-25T04:54:16;100033.53;;;9.33;76.23
67015;BME280;1033;52.560;13.374;2023-04-25T04:57:03;100034.81;;;9.24;74.36
67015;BME280;1033;52.560;13.374;2023-04-25T04:59:45;100033.00;;;9.49;77.35
67015;BME280;1033;52.560;13.374;2023-04-25T05:02:46;100033.91;;;9.74;74.06
67015;BME280;1033;52.560;13.374;2023-04-25T05:05:38;100032.84;;;9.82;75.08
67015;BME280;1033;52.560;13.374;2023-04-25T05:08:28;100041.00;;;10.00;72.73
67015;BME280;1033;52.560;13.374;2023-04-25T05:11:15;100048.00;;;10.08;72.69
67015;BME280;1033;52.560;13.374;2023-04-25T05:14:03;100044.97;;;9.66;74.85
67015;BME280;1033;52.560;13.374;2023-04-25T05:25:45;100041.16;;;10.12;73.17
67015;BME280;1033;52.560;13.374;2023-04-25T05:28:30;100040.41;;;9.98;72.08
67015;BME280;1033;52.560;13.374;2023-04-25T05:31:30;100041.75;;;10.14;74.34
67015;BME280;1033;52.560;13.374;2023-04-25T05:34:08;100045.09;;;10.09;72.72
67015;BME280;1033;52.560;13.374;2023-04-25T05:37:15;100045.59;;;9.99;74.19
67015;BME280;1033;52.560;13.374;2023-04-25T05:51:54;100066.78;;;10.59;73.04
67015;BME280;1033;52.560;13.374;2023-04-25T05:54:33;100063.69;;;10.30;72.20
67015;BME280;1033;52.560;13.374;2023-04-25T05:57:19;100067.63;;;9.65;74.83
67015;BME280;1033;52.560;13.374;2023-04-25T05:59:49;100065.44;;;10.18;74.66
67015;BME280;1033;52.560;13.374;2023-04-25T06:02:19;100065.50;;;10.36;74.23
67015;BME280;1033;52.560;13.374;2023-04-25T06:04:51;100067.22;;;9.99;73.72
67015;BME280;1033;52.560;13.374;2023-04-25T06:07:27;100068.16;;;10.18;73.72
67015;BME280;1033;52.560;13.374;2023-04-25T06:10:04;100074.22;;;10.63;71.83
67015;BME280;1033;52.560;13.374;2023-04-25T06:12:45;100070.25;;;10.41;72.08
67015;BME280;1033;52.560;13.374;2023-04-25T06:15:18;100070.06;;;10.11;73.14
67015;BME280;1033;52.560;13.374;2023-04-25T06:17:56;100083.00;;;9.65;74.57
67015;BME280;1033;52.560;13.374;2023-04-25T06:20:31;100082.50;;;10.19;74.01
67015;BME280;1033;52.560;13.374;2023-04-25T06:23:42;100087.19;;;9.60;75.10
67015;BME280;1033;52.560;13.374;2023-04-25T06:27:16;100090.63;;;9.36;76.70
67015;BME280;1033;52.560;13.374;2023-04-25T06:30:21;100074.13;;;9.51;76.31
67015;BME280;1033;52.560;13.374;2023-04-25T06:33:09;100088.19;;;9.73;77.00
67015;BME280;1033;52.560;13.374;2023-04-25T06:35:51;100089.06;;;9.60;76.59
67015;BME280;1033;52.560;13.374;2023-04-25T06:38:29;100080.72;;;9.68;76.16
67015;BME280;1033;52.560;13.374;2023-04-25T06:41:03;100092.56;;;9.98;75.42
67015;BME280;1033;52.560;13.374;2023-04-25T06:43:49;100085.50;;;9.97;75.76
67015;BME280;1033;52.560;13.374;2023-04-25T06:46:31;100084.06;;;10.01;75.96
67015;BME280;1033;52.560;13.374;2023-04-25T06:49:07;100086.41;;;9.53;76.36
67015;BME280;1033;52.560;13.374;2023-04-25T06:51:37;100084.00;;;9.70;77.47
67015;BME280;1033;52.560;13.374;2023-04-25T06:54:15;100099.75;;;9.80;77.07
67015;BME280;1033;52.560;13.374;2023-04-25T06:57:03;100090.41;;;9.31;77.93
67015;BME280;1033;52.560;13.374;2023-04-25T06:59:33;100091.06;;;9.33;77.84
67015;BME280;1033;52.560;13.374;2023-04-25T07:02:04;100094.72;;;9.90;77.83
67015;BME280;1033;52.560;13.374;2023-04-25T07:04:33;100090.72;;;9.61;77.53
67015;BME280;1033;52.560;13.374;2023-04-25T07:07:03;100099.16;;;9.27;79.96
67015;BME280;1033;52.560;13.374;2023-04-25T07:09:40;100097.94;;;9.23;79.27
67015;BME280;1033;52.560;13.374;2023-04-25T07:12:12;100112.19;;;9.43;79.52
67015;BME280;1033;52.560;13.374;2023-04-25T07:14:42;100105.41;;;9.21;80.37
67015;BME280;1033;52.560;13.374;2023-04-25T07:17:12;100105.50;;;9.52;79.24
67015;BME280;1033;52.560;13.374;2023-04-25T07:19:47;100104.44;;;9.59;79.13
67015;BME280;1033;52.560;13.374;2023-04-25T07:22:17;100107.38;;;9.58;77.83
67015;BME280;1033;52.560;13.374;2023-04-25T07:24:48;100116.97;;;9.41;76.90
67015;BME280;1033;52.560;13.374;2023-04-25T07:27:21;100122.00;;;9.31;77.71
67015;BME280;1033;52.560;13.374;2023-04-25T07:29:55;100132.34;;;9.47;77.02
67015;BME280;1033;52.560;13.374;2023-04-25T07:32:26;100126.56;;;9.37;75.87
67015;BME280;1033;52.560;13.374;2023-04-25T07:34:57;100139.41;;;9.41;75.29
67015;BME280;1033;52.560;13.374;2023-04-25T07:37:26;100127.38;;;9.44;73.94
67015;BME280;1033;52.560;13.374;2023-04-25T07:40:11;100126.50;;;9.50;74.26
67015;BME280;1033;52.560;13.374;2023-04-25T07:43:09;100137.94;;;9.45;73.11
67015;BME280;1033;52.560;13.374;2023-04-25T07:45:57;100134.78;;;9.55;73.31
67015;BME280;1033;52.560;13.374;2023-04-25T07:48:40;100145.13;;;9.65;73.92
67015;BME280;1033;52.560;13.374;2023-04-25T07:51:28;100150.63;;;9.96;72.94
67015;BME280;1033;52.560;13.374;2023-04-25T07:54:00;100147.34;;;9.87;71.40
67015;BME280;1033;52.560;13.374;2023-04-25T07:56:31;100144.44;;;9.82;71.07
67015;BME280;1033;52.560;13.374;2023-04-25T07:59:19;100155.00;;;9.90;69.52
67015;BME280;1033;52.560;13.374;2023-04-25T08:01:49;100161.56;;;10.08;68.43
67015;BME280;1033;52.560;13.374;2023-04-25T08:04:21;100165.91;;;9.64;67.71
67015;BME280;1033;52.560;13.374;2023-04-25T08:06:59;100164.41;;;9.75;68.63
67015;BME280;1033;52.560;13.374;2023-04-25T08:09:32;100165.72;;;10.41;67.48
67015;BME280;1033;52.560;13.374;2023-04-25T08:12:07;100169.44;;;10.47;65.09
67015;BME280;1033;52.560;13.374;2023-04-25T08:14:39;100179.84;;;11.00;64.94
67015;BME280;1033;52.560;13.374;2023-04-25T08:17:09;100176.34;;;10.43;65.35
67015;BME280;1033;52.560;13.374;2023-04-25T08:19:42;100178.72;;;10.26;66.07
67015;BME280;1033;52.560;13.374;2023-04-25T08:22:22;100188.81;;;10.06;66.65
67015;BME280;1033;52.560;13.374;2023-04-25T08:25:10;100186.25;;;10.80;65.93
67015;BME280;1033;52.560;13.374;2023-04-25T08:27:42;100186.91;;;11.25;62.30
67015;BME280;1033;52.560;13.374;2023-04-25T08:30:16;100192.41;;;10.69;61.89
67015;BME280;1033;52.560;13.374;2023-04-25T08:32:46;100192.78;;;10.73;62.79
67015;BME280;1033;52.560;13.374;2023-04-25T08:35:48;100202.66;;;10.85;61.69
67015;BME280;1033;52.560;13.374;2023-04-25T08:38:17;100207.25;;;10.85;61.12
67015;BME280;1033;52.560;13.374;2023-04-25T08:40:50;100210.28;;;10.39;61.01
67015;BME280;1033;52.560;13.374;2023-04-25T08:43:24;100213.69;;;10.59;59.46
67015;BME280;1033;52.560;13.374;2023-04-25T08:45:57;100208.53;;;10.82;58.42
67015;BME280;1033;52.560;13.374;2023-04-25T08:48:53;100209.34;;;11.69;57.00
67015;BME280;1033;52.560;13.374;2023-04-25T08:51:28;100208.53;;;12.05;54.84
67015;BME280;1033;52.560;13.374;2023-04-25T08:54:08;100212.75;;;12.31;53.55
67015;BME280;1033;52.560;13.374;2023-04-25T08:57:01;100228.06;;;12.43;54.25
67015;BME280;1033;52.560;13.374;2023-04-25T08:59:34;100220.28;;;11.99;51.84
67015;BME280;1033;52.560;13.374;2023-04-25T09:02:06;100218.72;;;11.30;52.62
67015;BME280;1033;52.560;13.374;2023-04-25T09:04:43;100229.59;;;10.49;52.20
67015;BME280;1033;52.560;13.374;2023-04-25T09:07:15;100221.38;;;10.31;53.20
67015;BME280;1033;52.560;13.374;2023-04-25T09:09:50;100224.84;;;10.38;53.84
67015;BME280;1033;52.560;13.374;2023-04-25T09:12:23;100233.66;;;10.27;53.21
67015;BME280;1033;52.560;13.374;2023-04-25T09:15:08;100224.34;;;10.10;53.55
67015;BME280;1033;52.560;13.374;2023-04-25T09:17:47;100237.03;;;11.10;52.36
67015;BME280;1033;52.560;13.374;2023-04-25T09:20:25;100239.16;;;11.08;51.49
67015;BME280;1033;52.560;13.374;2023-04-25T09:23:14;100238.22;;;11.39;51.31
67015;BME280;1033;52.560;13.374;2023-04-25T09:25:53;100255.94;;;11.41;50.05
67015;BME280;1033;52.560;13.374;2023-04-25T09:28:25;100254.31;;;11.33;49.69
67015;BME280;1033;52.560;13.374;2023-04-25T09:31:04;100248.31;;;11.07;51.27
67015;BME280;1033;52.560;13.374;2023-04-25T09:33:41;100248.47;;;11.12;52.99
67015;BME280;1033;52.560;13.374;2023-04-25T09:36:16;100251.38;;;11.35;51.65
67015;BME280;1033;52.560;13.374;2023-04-25T09:39:19;100242.56;;;10.97;49.37
67015;BME280;1033;52.560;13.374;2023-04-25T09:42:03;100253.75;;;10.44;47.99
67015;BME280;1033;52.560;13.374;2023-04-25T09:44:43;100266.69;;;10.73;47.61
67015;BME280;1033;52.560;13.374;2023-04-25T09:47:22;100269.13;;;10.43;47.87
67015;BME280;1033;52.560;13.374;2023-04-25T09:49:56;100269.31;;;10.80;46.85
67015;BME280;1033;52.560;13.374;2023-04-25T09:52:29;100255.28;;;11.21;47.05
67015;BME280;1033;52.560;13.374;2023-04-25T09:55:23;100272.56;;;11.45;45.80
67015;BME280;1033;52.560;13.374;2023-04-25T09:57:57;100274.59;;;12.58;47.59
67015;BME280;1033;52.560;13.374;2023-04-25T10:00:34;100265.41;;;13.01;43.42
67015;BME280;1033;52.560;13.374;2023-04-25T10:03:19;100268.44;;;11.85;44.17
67015;BME280;1033;52.560;13.374;2023-04-25T10:06:14;100286.16;;;11.38;44.64
67015;BME280;1033;52.560;13.374;2023-04-25T10:08:53;100262.19;;;11.42;45.66
67015;BME280;1033;52.560;13.374;2023-04-25T10:11:31;100277.66;;;11.96;45.37
67015;BME280;1033;52.560;13.374;2023-04-25T10:14:04;100277.31;;;11.67;44.83
67015;BME280;1033;52.560;13.374;2023-04-25T10:16:42;100269.94;;;11.56;43.78
67015;BME280;1033;52.560;13.374;2023-04-25T10:19:22;100282.84;;;11.61;44.66
67015;BME280;1033;52.560;13.374;2023-04-25T10:21:54;100277.81;;;12.01;43.95
67015;BME280;1033;52.560;13.374;2023-04-25T10:24:25;100279.03;;;11.87;43.85
67015;BME280;1033;52.560;13.374;2023-04-25T10:26:57;100275.09;;;11.40;45.04
67015;BME280;1033;52.560;13.374;2023-04-25T10:29:27;100270.22;;;11.73;45.04
67015;BME280;1033;52.560;13.374;2023-04-25T10:31:56;100274.38;;;11.75;43.60
67015;BME280;1033;52.560;13.374;2023-04-25T10:34:39;100290.78;;;11.99;45.06
67015;BME280;1033;52.560;13.374;2023-04-25T10:37:11;100286.44;;;12.46;43.25
67015;BME280;1033;52.560;13.374;2023-04-25T10:39:41;100289.56;;;12.91;46.04
67015;BME280;1033;52.560;13.374;2023-04-25T10:42:12;100289.09;;;12.94;42.66
67015;BME280;1033;52.560;13.374;2023-04-25T10:44:41;100284.59;;;12.28;43.67
67015;BME280;1033;52.560;13.374;2023-04-25T10:47:36;100295.09;;;12.54;42.60
67015;BME280;1033;52.560;13.374;2023-04-25T10:50:08;100284.44;;;12.41;42.61
67015;BME280;1033;52.560;13.374;2023-04-25T10:52:39;100299.03;;;12.40;43.87
67015;BME280;1033;52.560;13.374;2023-04-25T10:55:09;100292.81;;;12.22;41.43
67015;BME280;1033;52.560;13.374;2023-04-25T10:57:39;100304.03;;;12.43;41.36
67015;BME280;1033;52.560;13.374;2023-04-25T11:00:18;100296.31;;;12.58;41.07
67015;BME280;1033;52.560;13.374;2023-04-25T11:02:59;100296.81;;;12.97;41.50
67015;BME280;1033;52.560;13.374;2023-04-25T11:05:32;100295.22;;;12.78;40.26
67015;BME280;1033;52.560;13.374;2023-04-25T11:08:25;100314.38;;;11.98;42.94
67015;BME280;1033;52.560;13.374;2023-04-25T11:11:02;100336.31;;;10.84;44.41
67015;BME280;1033;52.560;13.374;2023-04-25T11:13:31;100335.69;;;10.51;45.43
67015;BME280;1033;52.560;13.374;2023-04-25T11:16:00;100325.31;;;10.48;45.85
67015;BME280;1033;52.560;13.374;2023-04-25T11:18:41;100338.28;;;10.26;46.17
67015;BME280;1033;52.560;13.374;2023-04-25T11:21:13;100335.88;;;10.56;46.03
67015;BME280;1033;52.560;13.374;2023-04-25T11:23:45;100333.78;;;10.96;45.20
67015;BME280;1033;52.560;13.374;2023-04-25T11:26:14;100335.75;;;10.76;44.47
67015;BME280;1033;52.560;13.374;2023-04-25T11:28:45;100339.19;;;10.96;44.25
67015;BME280;1033;52.560;13.374;2023-04-25T11:31:15;100341.06;;;11.27;43.06
67015;BME280;1033;52.560;13.374;2023-04-25T11:33:44;100338.09;;;11.85;44.40
67015;BME280;1033;52.560;13.374;2023-04-25T11:36:15;100348.81;;;12.34;42.01
67015;BME280;1033;52.560;13.374;2023-04-25T11:38:44;100347.13;;;11.97;41.23
67015;BME280;1033;52.560;13.374;2023-04-25T11:41:14;100354.25;;;11.91;41.45
67015;BME280;1033;52.560;13.374;2023-04-25T11:43:43;100357.56;;;11.75;40.67
67015;BME280;1033;52.560;13.374;2023-04-25T11:46:13;100352.16;;;11.68;41.90
67015;BME280;1033;52.560;13.374;2023-04-25T11:48:43;100355.22;;;11.79;40.56
67015;BME280;1033;52.560;13.374;2023-04-25T11:51:14;100364.94;;;11.05;41.75
67015;BME280;1033;52.560;13.374;2023-04-25T11:53:45;100358.78;;;10.92;42.64
67015;BME280;1033;52.560;13.374;2023-04-25T11:56:14;100363.56;;;10.96;42.91
67015;BME280;1033;52.560;13.374;2023-04-25T11:59:00;100365.00;;;10.99;43.85
67015;BME280;1033;52.560;13.374;2023-04-25T12:01:31;100369.06;;;11.14;42.76
67015;BME280;1033;52.560;13.374;2023-04-25T12:04:13;100353.97;;;11.81;44.19
67015;BME280;1033;52.560;13.374;2023-04-25T12:06:46;100363.25;;;12.46;42.96
67015;BME280;1033;52.560;13.374;2023-04-25T12:09:17;100375.34;;;11.64;42.04
67015;BME280;1033;52.560;13.374;2023-04-25T12:11:54;100369.00;;;11.21;42.62
67015;BME280;1033;52.560;13.374;2023-04-25T12:14:25;100369.53;;;11.05;43.12
67015;BME280;1033;52.560;13.374;2023-04-25T12:16:59;100375.84;;;10.99;43.79
67015;BME280;1033;52.560;13.374;2023-04-25T12:19:33;100378.28;;;10.69;43.36
67015;BME280;1033;52.560;13.374;2023-04-25T12:22:10;100375.59;;;11.00;42.99
67015;BME280;1033;52.560;13.374;2023-04-25T12:24:47;100379.56;;;11.60;44.10
67015;BME280;1033;52.560;13.374;2023-04-25T12:27:17;100378.69;;;11.66;41.83
67015;BME280;1033;52.560;13.374;2023-04-25T12:29:54;100374.63;;;12.00;43.20
67015;BME280;1033;52.560;13.374;2023-04-25T12:32:24;100385.72;;;12.17;40.18
67015;BME280;1033;52.560;13.374;2023-04-25T12:34:54;100381.63;;;12.08;40.72
67015;BME280;1033;52.560;13.374;2023-04-25T12:37:25;100367.78;;;11.73;40.08
67015;BME280;1033;52.560;13.374;2023-04-25T12:39:54;100375.72;;;11.68;40.48
67015;BME280;1033;52.560;13.374;2023-04-25T12:42:23;100386.16;;;11.40;41.30
67015;BME280;1033;52.560;13.374;2023-04-25T12:44:53;100378.38;;;10.94;41.55
67015;BME280;1033;52.560;13.374;2023-04-25T12:47:22;100386.31;;;11.20;42.09
67015;BME280;1033;52.560;13.374;2023-04-25T12:49:51;100380.06;;;12.00;44.80
67015;BME280;1033;52.560;13.374;2023-04-25T12:52:20;100381.28;;;11.80;40.74
67015;BME280;1033;52.560;13.374;2023-04-25T12:54:51;100381.97;;;11.68;42.91
67015;BME280;1033;52.560;13.374;2023-04-25T12:57:20;100379.06;;;11.70;41.13
67015;BME280;1033;52.560;13.374;2023-04-25T12:59:50;100380.28;;;11.99;43.05
67015;BME280;1033;52.560;13.374;2023-04-25T13:02:19;100386.16;;;12.50;39.45
67015;BME280;1033;52.560;13.374;2023-04-25T13:04:49;100391.00;;;12.30;40.06
67015;BME280;1033;52.560;13.374;2023-04-25T13:07:19;100389.19;;;12.42;41.50
67015;BME280;1033;52.560;13.374;2023-04-25T13:09:49;100382.53;;;12.75;39.46
67015;BME280;1033;52.560;13.374;2023-04-25T13:12:18;100388.72;;;12.63;39.87
67015;BME280;1033;52.560;13.374;2023-04-25T13:14:48;100378.56;;;12.89;39.01
67015;BME280;1033;52.560;13.374;2023-04-25T13:17:17;100381.50;;;13.05;38.55
67015;BME280;1033;52.560;13.374;2023-04-25T13:19:46;100377.84;;;12.82;38.13
67015;BME280;1033;52.560;13.374;2023-04-25T13:22:16;100392.75;;;12.25;39.34
67015;BME280;1033;52.560;13.374;2023-04-25T13:24:47;100382.66;;;11.89;40.10
67015;BME280;1033;52.560;13.374;2023-04-25T13:27:18;100388.53;;;11.86;41.29
67015;BME280;1033;52.560;13.374;2023-04-25T13:29:47;100387.44;;;11.62;42.93
67015;BME280;1033;52.560;13.374;2023-04-25T13:32:16;100403.19;;;11.78;41.79
67015;BME280;1033;52.560;13.374;2023-04-25T13:34:46;100401.56;;;11.70;41.86
67015;BME280;1033;52.560;13.374;2023-04-25T13:37:15;100396.97;;;11.46;43.02
67015;BME280;1033;52.560;13.374;2023-04-25T13:39:44;100404.03;;;11.16;43.46
67015;BME280;1033;52.560;13.374;2023-04-25T13:42:13;100404.72;;;11.05;44.37
67015;BME280;1033;52.560;13.374;2023-04-25T13:44:45;100404.72;;;11.05;44.22
67015;BME280;1033;52.560;13.374;2023-04-25T13:47:14;100405.59;;;11.37;46.13
67015;BME280;1033;52.560;13.374;2023-04-25T13:49:44;100421.22;;;11.03;44.13
67015;BME280;1033;52.560;13.374;2023-04-25T13:52:13;100415.56;;;11.05;44.52
67015;BME280;1033;52.560;13.374;2023-04-25T13:54:43;100410.88;;;11.18;43.92
67015;BME280;1033;52.560;13.374;2023-04-25T13:57:12;100410.88;;;11.25;43.58
67015;BME280;1033;52.560;13.374;2023-04-25T13:59:41;100414.16;;;11.58;43.68